Macgregor, Canada
Current Conditions -  °F | °C
As of 4:00 PM on Thursday 23 Oct 2014 (Local Time) from CYPG Reporting Station
Broken Clouds Broken Clouds  
Wind Chill: 66°   Ceiling: 22000
Heat Index: 66°   Visibility: 15mi
Dew Point: 39°   Wind: 7mph
Humidity: 37%   Direction: 220°SW
Pressure: 29.74"   Gusts: NA
Location:  49.97°N, 98.77°W
Report Text: CYPG 232100Z 22006KT 15SM BKN220 19/04 A2974 RMK CI2 SLP074
Loading
Personal Weather Stations






























Interactive Weather Map
Tropical Storm Tracking
New forecast layout! Learn more

10-Day Weather Forecast

Advertisements
Track Severe Weather on mobile